14:48
Airports
History
Links
Donate
Help keep this website running!
PayPal
Bitcoin
This page is community maintained. The information is intended for PC simulator navigation or reference.
Always use approved charts for navigation.
1B3
Fair Haven Municipal
Fair Haven Municipal (1B3)
Fair Haven, Vermont, United States (5743)
4
Lat/Lng:43° 36' 55.24" N / 73° 16' 28.4" W
43.615344 / -73.274556
Elevation:370'ft / 113mMSL
ID / ICAO:1B3
Runways:1
Longest:(02-20) 627.6m / 2,059ft Grass
Distance To
Airport ID:
Nearby VORs <50NM
Nearby NDBs
Nearby WeatherUpdated 08-22-17 13:56 GMT
Nearby weather at KRUT, Rutland - Southern Vermont Rgn located 17.3 nautical miles from 1B3
Altimeter: 29.95
Visibility: 9.0 statute miles
Wind: 6 knots (150°)
Temp: 26°c 79°f
Humidity: 74.0%

METAR: KRUT 221356Z AUTO 15006KT 9SM CLR 26/21 A2995 RMK AO2 SLP149 T02560206 $

(Powered by phpweather)
Runway 02 / 20
Dimensions:627.6 x 15.2m 2059' x 50'ft
Surface:Grass
Runway 02 [A]Runway 20 [B]
Heading:005°TH 185°TH
Lat:
Lng:
43° 36' 45.06"N
73° 16' 29.63"W
43° 37' 5.42"N
73° 16' 27.17"W
User Notes and Comments
Google Map
Nearby Airports
(U) Granville 13.2 NM
B01 S 177°
(U) Rutland - Southern Vermont Rgn 17.3 NM
KRUT (WX) ESE 109°
(R) Mach Personal Strip 18.3 NM
VT20 SSE 159°
(U) Ticonderoga Muni 19.4 NM
4B6 NNW 339°
4 Torrey 22.4 NM
VT24 NNW 347°
(U) Floyd Bennett Memorial 25.3 NM
KGFL (WX) SW 221°
(R) Manning Personal Airstrip 25.9 NM
VT10 NNW 347°
VFR Chart
Flight Planning at SkyVector.com